createdAt,value
2022-08-17T00:04:11.850Z,20.82
2022-08-17T00:09:41.278Z,20.72
2022-08-17T00:15:12.928Z,20.67
2022-08-17T00:20:44.865Z,20.56
2022-08-17T00:26:34.891Z,20.52
2022-08-17T00:31:48.651Z,20.48
2022-08-17T00:37:20.704Z,20.45
2022-08-17T00:42:52.360Z,20.37
2022-08-17T00:48:29.424Z,20.33
2022-08-17T00:53:56.010Z,20.25
2022-08-17T00:59:27.995Z,20.23
2022-08-17T01:05:00.065Z,20.10
2022-08-17T01:10:59.305Z,20.09
2022-08-17T01:16:03.952Z,20.00
2022-08-17T01:21:35.891Z,19.96
2022-08-17T01:27:10.409Z,19.92
2022-08-17T01:32:39.765Z,19.87
2022-08-17T01:38:11.407Z,19.82
2022-08-17T01:43:43.487Z,19.76
2022-08-17T01:49:15.086Z,19.66
2022-08-17T01:54:47.145Z,19.61
2022-08-17T02:00:18.626Z,19.50
2022-08-17T02:05:50.610Z,19.47
2022-08-17T02:11:22.222Z,19.41
2022-08-17T02:16:54.169Z,19.38
2022-08-17T02:22:25.995Z,19.37
2022-08-17T02:27:57.845Z,19.35
2022-08-17T02:33:41.804Z,19.34
2022-08-17T02:39:01.391Z,19.31
2022-08-17T02:44:38.890Z,19.26
2022-08-17T02:50:05.516Z,19.26
2022-08-17T02:55:37.521Z,19.26
2022-08-17T03:01:09.869Z,19.23
2022-08-17T03:06:41.544Z,19.20
2022-08-17T03:12:13.315Z,19.17
2022-08-17T03:17:45.636Z,19.14
2022-08-17T03:23:17.747Z,19.14
2022-08-17T03:28:49.608Z,19.09
2022-08-17T03:34:21.242Z,19.06
2022-08-17T03:39:54.709Z,18.95
2022-08-17T03:45:26.763Z,18.93
2022-08-17T03:50:58.962Z,18.79
2022-08-17T03:56:31.081Z,18.74
2022-08-17T04:04:27.677Z,0.00
2022-08-17T04:09:55.657Z,18.64
2022-08-17T04:15:27.722Z,18.57
2022-08-17T04:20:59.921Z,18.55
2022-08-17T04:26:52.527Z,18.58
2022-08-17T04:32:03.387Z,19.09
2022-08-17T04:39:48.961Z,19.72
2022-08-17T04:45:20.763Z,20.10
2022-08-17T04:50:52.397Z,20.59
2022-08-17T04:56:23.892Z,20.58
2022-08-17T05:01:55.895Z,20.38
2022-08-17T05:07:31.418Z,20.25
2022-08-17T05:12:59.517Z,20.21
2022-08-17T05:18:31.013Z,20.28
2022-08-17T05:24:02.960Z,20.45
2022-08-17T05:29:35.753Z,20.63
2022-08-17T05:35:06.765Z,22.38
2022-08-17T05:40:38.474Z,23.47
2022-08-17T05:46:09.997Z,25.38
2022-08-17T05:51:41.877Z,26.31
2022-08-17T05:57:13.929Z,27.67
2022-08-17T06:02:47.823Z,28.27
2022-08-17T06:08:17.586Z,29.54
2022-08-17T06:13:49.352Z,30.16
2022-08-17T06:19:21.042Z,31.25
2022-08-17T06:24:52.712Z,31.66
2022-08-17T06:30:24.765Z,31.75
2022-08-17T06:35:56.432Z,31.83
2022-08-17T06:41:28.175Z,32.11
2022-08-17T06:46:59.938Z,32.23
2022-08-17T06:52:45.438Z,32.28
2022-08-17T06:58:05.770Z,32.42
2022-08-17T07:03:35.324Z,33.10
2022-08-17T07:09:07.061Z,33.52
2022-08-17T07:14:39.138Z,34.28
2022-08-17T07:20:10.874Z,34.58
2022-08-17T07:25:42.681Z,35.44
2022-08-17T07:31:14.771Z,36.04
2022-08-17T07:36:46.768Z,37.23
2022-08-17T07:42:18.585Z,37.67
2022-08-17T07:47:50.100Z,38.46
2022-08-17T07:53:21.593Z,38.81
2022-08-17T07:58:53.595Z,39.52
2022-08-17T08:04:43.222Z,39.75
2022-08-17T08:09:57.432Z,40.25
2022-08-17T08:15:29.199Z,40.43
2022-08-17T08:21:01.125Z,40.47
2022-08-17T08:26:32.800Z,40.47
2022-08-17T08:32:04.868Z,40.18
2022-08-17T08:37:40.633Z,40.18
2022-08-17T08:43:08.068Z,40.05
2022-08-17T08:48:53.186Z,39.94
2022-08-17T08:54:11.839Z,39.80
2022-08-17T08:59:44.288Z,39.71
2022-08-17T09:05:15.978Z,39.53
2022-08-17T09:10:47.372Z,39.36
2022-08-17T09:16:19.151Z,39.05
2022-08-17T09:21:51.088Z,38.86
2022-08-17T09:27:22.658Z,38.37
2022-08-17T09:32:56.565Z,38.22
2022-08-17T09:38:32.290Z,37.92
2022-08-17T09:44:00.254Z,37.53
2022-08-17T09:49:34.112Z,36.19
2022-08-17T09:55:06.276Z,35.51
2022-08-17T10:00:37.972Z,34.89
2022-08-17T10:06:09.863Z,34.83
2022-08-17T10:11:44.848Z,34.70
2022-08-17T10:22:45.670Z,34.04
2022-08-17T10:28:19.950Z,33.91
2022-08-17T10:33:48.514Z,34.04
2022-08-17T10:39:20.073Z,34.11
2022-08-17T10:44:51.985Z,34.15
2022-08-17T10:50:23.697Z,33.97
2022-08-17T10:52:46.666Z,33.97
2022-08-17T10:58:18.299Z,34.18
2022-08-17T11:03:49.940Z,34.73
2022-08-17T11:09:21.875Z,34.96
2022-08-17T11:14:53.454Z,35.37
2022-08-17T11:20:25.475Z,35.55
2022-08-17T11:25:57.214Z,35.73
2022-08-17T11:37:01.129Z,35.47
2022-08-17T11:42:32.689Z,35.41
2022-08-17T11:48:28.880Z,35.23
2022-08-17T11:53:36.186Z,35.17
2022-08-17T11:59:07.975Z,35.16
2022-08-17T12:04:39.911Z,35.23
2022-08-17T12:10:11.531Z,35.37
2022-08-17T12:15:43.335Z,35.52
2022-08-17T12:21:15.114Z,35.55
2022-08-17T12:26:47.116Z,35.52
2022-08-17T12:32:18.784Z,35.38
2022-08-17T12:37:52.851Z,35.23
2022-08-17T12:43:24.588Z,35.20
2022-08-17T12:48:59.875Z,35.25
2022-08-17T12:59:59.943Z,35.44
2022-08-17T13:05:31.966Z,35.56
2022-08-17T13:11:03.667Z,35.62
2022-08-17T13:16:35.647Z,35.76
2022-08-17T13:22:07.466Z,35.86
2022-08-17T13:27:38.973Z,36.00
2022-08-17T13:33:11.109Z,35.97
2022-08-17T13:38:42.712Z,35.96
2022-08-17T13:44:14.582Z,35.95
2022-08-17T13:49:48.694Z,36.02
2022-08-17T13:55:17.929Z,36.08
2022-08-17T14:00:49.938Z,36.28
2022-08-17T14:06:23.715Z,36.37
2022-08-17T14:11:53.355Z,36.65
2022-08-17T14:17:25.261Z,36.71
2022-08-17T14:22:57.054Z,36.59
2022-08-17T14:28:28.792Z,36.45
2022-08-17T14:34:00.724Z,36.31
2022-08-17T14:39:32.382Z,36.24
2022-08-17T14:45:04.158Z,36.02
2022-08-17T14:50:36.251Z,35.93
2022-08-17T14:56:07.854Z,35.58
2022-08-17T15:01:39.974Z,35.37
2022-08-17T15:07:11.713Z,34.91
2022-08-17T15:12:43.534Z,34.78
2022-08-17T15:18:15.272Z,34.38
2022-08-17T15:23:46.883Z,34.17
2022-08-17T15:29:18.865Z,34.11
2022-08-17T15:34:50.849Z,34.24
2022-08-17T15:40:22.770Z,34.66
2022-08-17T15:45:59.773Z,34.89
2022-08-17T15:51:26.416Z,35.28
2022-08-17T15:56:58.204Z,35.33
2022-08-17T16:03:13.359Z,35.03
2022-08-17T16:08:01.643Z,34.85
2022-08-17T16:13:33.531Z,34.51
2022-08-17T16:19:05.144Z,34.34
2022-08-17T16:24:36.588Z,34.10
2022-08-17T16:30:08.406Z,33.97
2022-08-17T16:35:40.946Z,33.80
2022-08-17T16:41:12.789Z,33.72
2022-08-17T16:46:45.931Z,33.69
2022-08-17T16:52:16.157Z,33.66
2022-08-17T16:57:50.214Z,33.52
2022-08-17T17:03:20.617Z,33.46
2022-08-17T17:08:51.754Z,33.28
2022-08-17T17:14:23.396Z,33.15
2022-08-17T17:19:55.290Z,32.87
2022-08-17T17:25:27.127Z,32.73
2022-08-17T17:31:02.098Z,32.56
2022-08-17T17:36:33.583Z,32.52
2022-08-17T17:42:05.555Z,32.39
2022-08-17T17:53:08.470Z,32.15
2022-08-17T17:58:40.143Z,32.04
2022-08-17T18:04:20.296Z,31.80
2022-08-17T18:09:43.347Z,31.67
2022-08-17T18:15:15.613Z,31.44
2022-08-17T18:20:53.812Z,31.33
2022-08-17T18:26:19.048Z,31.03
2022-08-17T18:31:50.930Z,30.89
2022-08-17T18:37:22.594Z,30.70
2022-08-17T18:42:54.443Z,30.56
2022-08-17T18:48:26.110Z,30.29
2022-08-17T18:53:58.030Z,30.16
2022-08-17T18:59:29.778Z,29.94
2022-08-17T19:05:01.548Z,29.81
2022-08-17T19:10:33.345Z,29.60
2022-08-17T19:16:05.168Z,29.46
2022-08-17T19:21:37.227Z,29.22
2022-08-17T19:27:09.021Z,29.12
2022-08-17T19:32:40.786Z,28.89
2022-08-17T19:38:13.469Z,28.77
2022-08-17T19:43:44.998Z,28.60
2022-08-17T19:54:48.782Z,28.41
2022-08-17T20:00:20.333Z,28.37
2022-08-17T20:06:12.084Z,28.27
2022-08-17T20:11:23.932Z,28.24
2022-08-17T20:19:08.957Z,0.00
2022-08-17T20:24:40.896Z,28.18
2022-08-17T20:30:12.999Z,28.16
2022-08-17T20:35:44.697Z,28.15
2022-08-17T20:41:16.599Z,28.12
2022-08-17T20:46:48.684Z,28.06
2022-08-17T20:52:20.634Z,28.02
2022-08-17T20:57:52.498Z,27.98
2022-08-17T21:03:24.541Z,27.98
2022-08-17T21:08:56.375Z,27.93
2022-08-17T21:14:28.658Z,27.95
2022-08-17T21:20:10.787Z,27.92
2022-08-17T21:25:32.131Z,27.89
2022-08-17T21:31:03.646Z,27.85
2022-08-17T21:36:35.525Z,27.82
2022-08-17T21:42:08.300Z,27.72
2022-08-17T21:47:40.100Z,27.68
2022-08-17T21:53:11.816Z,27.61
2022-08-17T21:58:47.866Z,27.58
2022-08-17T22:04:15.396Z,27.54
2022-08-17T22:09:47.413Z,27.50
2022-08-17T22:15:19.103Z,27.36
2022-08-17T22:20:50.735Z,27.19
2022-08-17T22:26:22.827Z,26.67
2022-08-17T22:31:54.712Z,26.36
2022-08-17T22:37:27.809Z,25.65
2022-08-17T22:42:58.657Z,25.06
2022-08-17T22:48:30.507Z,23.33
2022-08-17T22:54:02.436Z,22.75
2022-08-17T22:59:34.574Z,21.89
2022-08-17T23:05:12.448Z,21.64
2022-08-17T23:10:46.082Z,21.34
2022-08-17T23:16:17.940Z,21.18
2022-08-17T23:21:49.664Z,21.02
2022-08-17T23:27:27.485Z,20.88
2022-08-17T23:32:59.612Z,20.85
2022-08-17T23:38:31.810Z,20.86
2022-08-17T23:44:04.145Z,20.90
2022-08-17T23:49:36.589Z,20.86
2022-08-17T23:55:08.978Z,20.88
